Terminal Aerodrome Forecast
Issued by NWS Upton, NY

Home | Current Version | Previous Version | Text Only | Print | Product List | Glossary On
Versions: 1 2 3 4 5 6 7 8 9 10 11 12 13 14 15 16 17 18 19 20 21 22 23 24 25 26 27 28 29 30 31
000
FTUS41 KOKX 031100
TAFEWR
TAF
KEWR 031123Z 0312/0418 VRB04KT P6SM BKN250
     FM031700 16006KT P6SM SCT020 BKN120
     FM032100 16009KT 4SM -SN BKN025 OVC060
     FM040000 17009KT 2SM -SNPL OVC009
     FM040300 19009KT 1SM RA OVC004
     FM040600 24010KT 1SM -RA OVC004 WS020/24055KT
     FM041100 27008KT 3SM -RA BR OVC007=

USA.gov is the U.S. government's official web portal to all federal, state and local government web resources and services.